Serenade Of The Seas — C6FV8 — position and weather

sailwx.info

Track history (hours):
 
Tides and Currents Weather Stations Pressure Air Temp Water Temp Dewpoint Dewpoint Depression Visibility Wind Speed Wind Dir Waves Ship Positions

Serenade Of The Seas

Operator: Royal Caribbean Cruises Ltd

Last reported at 2018-Feb-22 02:00 UTC. Time now 2018-Feb-22 08:48 UTC.
Position N 25°22' W 080°01'.

Length 294 m; draft 8.5 m.

Type: Ship. MMSI: 311492000.

Date/timePositionNaut miles runAvg speedWind from/ knotsBaromVisibWave heightAir tempDewpointWater temp
2018-Feb-22 02:00N 25°22' W 080°01'612.3
2018-Feb-22 01:30N 25°28' W 080°00'612.3
2018-Feb-22 01:00N 25°34' W 079°60'612.4
2018-Feb-22 00:30N 25°41' W 079°60'612.7
2018-Feb-22 00:00N 25°47' W 079°60'613.0
2018-Feb-21 23:30N 25°53' W 079°59'713.7
2018-Feb-21 23:00N 26°00' W 080°01'611.5
2018-Feb-21 22:31N 26°05' W 080°04'2 4.6
2018-Feb-21 21:59N 26°05' W 080°07'0 0.0
2018-Feb-21 21:29N 26°05' W 080°07'0 0.0
2018-Feb-21 20:59N 26°05' W 080°07'0 0.0
2018-Feb-21 20:29N 26°05' W 080°07'0 0.0
2018-Feb-21 19:59N 26°05' W 080°07'0 0.0
2018-Feb-21 19:29N 26°05' W 080°07'0 0.0
2018-Feb-21 18:59N 26°05' W 080°07'0 0.0
2018-Feb-21 18:29N 26°05' W 080°07'0 0.0
2018-Feb-21 17:59N 26°05' W 080°07'0 0.0
2018-Feb-21 17:29N 26°05' W 080°07'0 0.0
2018-Feb-21 16:59N 26°05' W 080°07'0 0.0
2018-Feb-21 16:29N 26°05' W 080°07'0 0.0
2018-Feb-21 15:59N 26°05' W 080°07'0 0.0
2018-Feb-21 15:29N 26°05' W 080°07'0 0.0
2018-Feb-21 14:59N 26°05' W 080°07'0 0.0
2018-Feb-21 14:29N 26°05' W 080°07'0 0.0
2018-Feb-21 13:59N 26°05' W 080°07'0 0.0
2018-Feb-21 13:29N 26°05' W 080°07'0 0.0
2018-Feb-21 12:59N 26°05' W 080°07'0 0.0
2018-Feb-21 12:29N 26°05' W 080°07'0 0.0
2018-Feb-21 11:59N 26°05' W 080°07'0 0.0
2018-Feb-21 11:29N 26°05' W 080°07'0 0.6
2018-Feb-21 11:00N 26°06' W 080°07'4 8.0
2018-Feb-21 10:30N 26°05' W 080°03'5 9.9
2018-Feb-21 10:00N 26°01' W 079°60'713.6
2018-Feb-21 09:30N 25°55' W 079°56'815.6
2018-Feb-21 09:00N 25°47' W 079°55'815.9
2018-Feb-21 08:30N 25°39' W 079°55'816.1
2018-Feb-21 08:00N 25°31' W 079°56'816.6
2018-Feb-21 07:30N 25°23' W 079°57'48014.6
2018-Feb-19 22:41N 20°36' W 086°56'316.4
2018-Feb-19 22:30N 20°34' W 086°58'5 8.9
2018-Feb-19 21:58N 20°29' W 086°59'0 0.0
2018-Feb-19 21:19N 20°29' W 086°59'0 0.0
2018-Feb-19 20:58N 20°29' W 086°59'0 0.0
2018-Feb-19 20:28N 20°29' W 086°59'0 0.0
2018-Feb-19 19:58N 20°29' W 086°59'0 0.0
2018-Feb-19 19:28N 20°29' W 086°59'0 0.0
2018-Feb-19 18:52N 20°29' W 086°59'0 0.0
2018-Feb-19 18:28N 20°29' W 086°59'0 0.0
2018-Feb-19 17:58N 20°29' W 086°59'0 0.0
2018-Feb-19 17:28N 20°29' W 086°59'0 0.0
2018-Feb-19 16:58N 20°29' W 086°59'0 0.0
2018-Feb-19 16:28N 20°29' W 086°59'0 0.0
2018-Feb-19 15:58N 20°29' W 086°59'0 0.0
2018-Feb-19 15:28N 20°29' W 086°59'0 0.0
2018-Feb-19 14:58N 20°29' W 086°59'0 0.0
2018-Feb-19 14:28N 20°29' W 086°59'0 0.0
2018-Feb-19 13:58N 20°29' W 086°59'0 0.0
2018-Feb-19 13:28N 20°29' W 086°59'0 0.0
2018-Feb-19 12:55N 20°29' W 086°59'0 0.0
2018-Feb-19 12:30N 20°29' W 086°59'1 1.6
2018-Feb-19 12:00N 20°29' W 086°59'3 6.7
2018-Feb-19 11:30N 20°27' W 087°03'5 8.9
2018-Feb-19 10:56N 20°23' W 087°05'  
2018-Feb-17 00:35N 25°19' W 080°02'215.7
2018-Feb-17 00:29N 25°20' W 080°01'816.2
2018-Feb-17 00:00N 25°28' W 080°01'816.4
2018-Feb-16 23:30N 25°36' W 080°00'816.2
2018-Feb-16 23:00N 25°44' W 080°01'816.0
2018-Feb-16 22:30N 25°52' W 080°02'815.4
2018-Feb-16 22:00N 25°60' W 080°02'713.1
2018-Feb-16 21:31N 26°06' W 080°03'4 7.4
2018-Feb-16 21:00N 26°05' W 080°07'0 0.0
2018-Feb-16 20:28N 26°05' W 080°07'0 0.0
2018-Feb-16 19:59N 26°05' W 080°07'0 0.0
2018-Feb-16 19:29N 26°05' W 080°07'0 0.0
2018-Feb-16 18:58N 26°05' W 080°07'0 0.0
2018-Feb-16 18:29N 26°05' W 080°07'0 0.0
2018-Feb-16 17:58N 26°05' W 080°07'0 0.0
2018-Feb-16 17:29N 26°05' W 080°07'0 0.0
2018-Feb-16 16:58N 26°05' W 080°07'0 0.0
2018-Feb-16 16:29N 26°05' W 080°07'0 0.0
2018-Feb-16 15:58N 26°05' W 080°07'0 0.0
2018-Feb-16 15:29N 26°05' W 080°07'0 0.0
2018-Feb-16 14:58N 26°05' W 080°07'0 0.0
2018-Feb-16 14:25N 26°05' W 080°07'0 0.0
2018-Feb-16 13:59N 26°05' W 080°07'0 0.0
2018-Feb-16 13:28N 26°05' W 080°07'0 0.0
2018-Feb-16 12:55N 26°05' W 080°07'0 0.0
2018-Feb-16 12:29N 26°05' W 080°07'0 0.0
2018-Feb-16 11:58N 26°05' W 080°07'0 0.0
2018-Feb-16 11:30N 26°05' W 080°07'1 1.3
2018-Feb-16 11:00N 26°06' W 080°07'5 9.5
2018-Feb-16 10:30N 26°06' W 080°01'713.1
2018-Feb-16 10:00N 26°08' W 079°54'816.7
2018-Feb-16 09:30N 26°09' W 079°45'816.7
2018-Feb-16 09:00N 26°11' W 079°36'  
2018-Feb-14 02:58N 18°15' W 063°28'1020.8
2018-Feb-14 02:29N 18°08' W 063°20'1020.8
2018-Feb-14 02:00N 18°01' W 063°13'1220.9
2018-Feb-14 01:24N 17°53' W 063°02'4920.6
2018-Feb-13 23:02N 17°26' W 062°20'119.3
2018-Feb-13 22:59N 17°25' W 062°19'1020.8
2018-Feb-13 22:30N 17°19' W 062°11'1020.4
2018-Feb-13 22:00N 17°14' W 062°02'917.0
2018-Feb-13 21:30N 17°09' W 061°55'4 7.5
2018-Feb-13 21:00N 17°07' W 061°51'0 0.3
2018-Feb-13 20:28N 17°07' W 061°51'0 0.0
2018-Feb-13 19:58N 17°07' W 061°51'0 0.0
2018-Feb-13 19:28N 17°07' W 061°51'0 0.0
2018-Feb-13 18:58N 17°07' W 061°51'0 0.0
2018-Feb-13 18:28N 17°07' W 061°51'0 0.0
2018-Feb-13 17:58N 17°07' W 061°51'0 0.0
2018-Feb-13 17:28N 17°07' W 061°51'0 0.0
2018-Feb-13 16:58N 17°07' W 061°51'0 0.0
2018-Feb-13 16:28N 17°07' W 061°51'0 0.0
2018-Feb-13 15:58N 17°07' W 061°51'0 0.0
2018-Feb-13 15:28N 17°07' W 061°51'0 0.0
2018-Feb-13 14:58N 17°07' W 061°51'0 0.0
2018-Feb-13 14:28N 17°07' W 061°51'0 0.0
2018-Feb-13 13:58N 17°07' W 061°51'0 0.0
2018-Feb-13 13:28N 17°07' W 061°51'0 0.0
2018-Feb-13 12:58N 17°07' W 061°51'0 0.5
2018-Feb-13 12:30N 17°07' W 061°51'4 8.1
2018-Feb-13 12:00N 17°09' W 061°55'612.3
2018-Feb-13 11:30N 17°06' W 062°00'917.5
2018-Feb-13 11:00N 16°57' W 062°02'918.3
2018-Feb-13 10:30N 16°48' W 062°03'918.0
2018-Feb-13 10:00N 16°39' W 062°03'917.8
2018-Feb-13 09:30N 16°30' W 062°04'917.5
2018-Feb-13 09:00N 16°21' W 062°05'  
Track history (hours):
 
Tides and Currents Weather Stations Pressure Air Temp Water Temp Dewpoint Dewpoint Depression Visibility Wind Speed Wind Dir Waves Ship Positions

Serenade Of The Seas

Operator: Royal Caribbean Cruises Ltd

Last reported at 2018-Feb-22 02:00 UTC. Time now 2018-Feb-22 08:48 UTC.
Position N 25°22' W 080°01'.

Length 294 m; draft 8.5 m.

Type: Ship. MMSI: 311492000.

Date/timePositionNaut miles runAvg speedWind from/ knotsBaromVisibWave heightAir tempDewpointWater temp
2018-Feb-22 02:00N 25°22' W 080°01'612.3
2018-Feb-22 01:30N 25°28' W 080°00'612.3
2018-Feb-22 01:00N 25°34' W 079°60'612.4
2018-Feb-22 00:30N 25°41' W 079°60'612.7
2018-Feb-22 00:00N 25°47' W 079°60'613.0
2018-Feb-21 23:30N 25°53' W 079°59'713.7
2018-Feb-21 23:00N 26°00' W 080°01'611.5
2018-Feb-21 22:31N 26°05' W 080°04'2 4.6
2018-Feb-21 21:59N 26°05' W 080°07'0 0.0
2018-Feb-21 21:29N 26°05' W 080°07'0 0.0
2018-Feb-21 20:59N 26°05' W 080°07'0 0.0
2018-Feb-21 20:29N 26°05' W 080°07'0 0.0
2018-Feb-21 19:59N 26°05' W 080°07'0 0.0
2018-Feb-21 19:29N 26°05' W 080°07'0 0.0
2018-Feb-21 18:59N 26°05' W 080°07'0 0.0
2018-Feb-21 18:29N 26°05' W 080°07'0 0.0
2018-Feb-21 17:59N 26°05' W 080°07'0 0.0
2018-Feb-21 17:29N 26°05' W 080°07'0 0.0
2018-Feb-21 16:59N 26°05' W 080°07'0 0.0
2018-Feb-21 16:29N 26°05' W 080°07'0 0.0
2018-Feb-21 15:59N 26°05' W 080°07'0 0.0
2018-Feb-21 15:29N 26°05' W 080°07'0 0.0
2018-Feb-21 14:59N 26°05' W 080°07'0 0.0
2018-Feb-21 14:29N 26°05' W 080°07'0 0.0
2018-Feb-21 13:59N 26°05' W 080°07'0 0.0
2018-Feb-21 13:29N 26°05' W 080°07'0 0.0
2018-Feb-21 12:59N 26°05' W 080°07'0 0.0
2018-Feb-21 12:29N 26°05' W 080°07'0 0.0
2018-Feb-21 11:59N 26°05' W 080°07'0 0.0
2018-Feb-21 11:29N 26°05' W 080°07'0 0.6
2018-Feb-21 11:00N 26°06' W 080°07'4 8.0
2018-Feb-21 10:30N 26°05' W 080°03'5 9.9
2018-Feb-21 10:00N 26°01' W 079°60'713.6
2018-Feb-21 09:30N 25°55' W 079°56'815.6
2018-Feb-21 09:00N 25°47' W 079°55'815.9
2018-Feb-21 08:30N 25°39' W 079°55'816.1
2018-Feb-21 08:00N 25°31' W 079°56'816.6
2018-Feb-21 07:30N 25°23' W 079°57'48014.6
2018-Feb-19 22:41N 20°36' W 086°56'316.4
2018-Feb-19 22:30N 20°34' W 086°58'5 8.9
2018-Feb-19 21:58N 20°29' W 086°59'0 0.0
2018-Feb-19 21:19N 20°29' W 086°59'0 0.0
2018-Feb-19 20:58N 20°29' W 086°59'0 0.0
2018-Feb-19 20:28N 20°29' W 086°59'0 0.0
2018-Feb-19 19:58N 20°29' W 086°59'0 0.0
2018-Feb-19 19:28N 20°29' W 086°59'0 0.0
2018-Feb-19 18:52N 20°29' W 086°59'0 0.0
2018-Feb-19 18:28N 20°29' W 086°59'0 0.0
2018-Feb-19 17:58N 20°29' W 086°59'0 0.0
2018-Feb-19 17:28N 20°29' W 086°59'0 0.0
2018-Feb-19 16:58N 20°29' W 086°59'0 0.0
2018-Feb-19 16:28N 20°29' W 086°59'0 0.0
2018-Feb-19 15:58N 20°29' W 086°59'0 0.0
2018-Feb-19 15:28N 20°29' W 086°59'0 0.0
2018-Feb-19 14:58N 20°29' W 086°59'0 0.0
2018-Feb-19 14:28N 20°29' W 086°59'0 0.0
2018-Feb-19 13:58N 20°29' W 086°59'0 0.0
2018-Feb-19 13:28N 20°29' W 086°59'0 0.0
2018-Feb-19 12:55N 20°29' W 086°59'0 0.0
2018-Feb-19 12:30N 20°29' W 086°59'1 1.6
2018-Feb-19 12:00N 20°29' W 086°59'3 6.7
2018-Feb-19 11:30N 20°27' W 087°03'5 8.9
2018-Feb-19 10:56N 20°23' W 087°05'  
2018-Feb-17 00:35N 25°19' W 080°02'215.7
2018-Feb-17 00:29N 25°20' W 080°01'816.2
2018-Feb-17 00:00N 25°28' W 080°01'816.4
2018-Feb-16 23:30N 25°36' W 080°00'816.2
2018-Feb-16 23:00N 25°44' W 080°01'816.0
2018-Feb-16 22:30N 25°52' W 080°02'815.4
2018-Feb-16 22:00N 25°60' W 080°02'713.1
2018-Feb-16 21:31N 26°06' W 080°03'4 7.4
2018-Feb-16 21:00N 26°05' W 080°07'0 0.0
2018-Feb-16 20:28N 26°05' W 080°07'0 0.0
2018-Feb-16 19:59N 26°05' W 080°07'0 0.0
2018-Feb-16 19:29N 26°05' W 080°07'0 0.0
2018-Feb-16 18:58N 26°05' W 080°07'0 0.0
2018-Feb-16 18:29N 26°05' W 080°07'0 0.0
2018-Feb-16 17:58N 26°05' W 080°07'0 0.0
2018-Feb-16 17:29N 26°05' W 080°07'0 0.0
2018-Feb-16 16:58N 26°05' W 080°07'0 0.0
2018-Feb-16 16:29N 26°05' W 080°07'0 0.0
2018-Feb-16 15:58N 26°05' W 080°07'0 0.0
2018-Feb-16 15:29N 26°05' W 080°07'0 0.0
2018-Feb-16 14:58N 26°05' W 080°07'0 0.0
2018-Feb-16 14:25N 26°05' W 080°07'0 0.0
2018-Feb-16 13:59N 26°05' W 080°07'0 0.0
2018-Feb-16 13:28N 26°05' W 080°07'0 0.0
2018-Feb-16 12:55N 26°05' W 080°07'0 0.0
2018-Feb-16 12:29N 26°05' W 080°07'0 0.0
2018-Feb-16 11:58N 26°05' W 080°07'0 0.0
2018-Feb-16 11:30N 26°05' W 080°07'1 1.3
2018-Feb-16 11:00N 26°06' W 080°07'5 9.5
2018-Feb-16 10:30N 26°06' W 080°01'713.1
2018-Feb-16 10:00N 26°08' W 079°54'816.7
2018-Feb-16 09:30N 26°09' W 079°45'816.7
2018-Feb-16 09:00N 26°11' W 079°36'  
2018-Feb-14 02:58N 18°15' W 063°28'1020.8
2018-Feb-14 02:29N 18°08' W 063°20'1020.8
2018-Feb-14 02:00N 18°01' W 063°13'1220.9
2018-Feb-14 01:24N 17°53' W 063°02'4920.6
2018-Feb-13 23:02N 17°26' W 062°20'119.3
2018-Feb-13 22:59N 17°25' W 062°19'1020.8
2018-Feb-13 22:30N 17°19' W 062°11'1020.4
2018-Feb-13 22:00N 17°14' W 062°02'917.0
2018-Feb-13 21:30N 17°09' W 061°55'4 7.5
2018-Feb-13 21:00N 17°07' W 061°51'0 0.3
2018-Feb-13 20:28N 17°07' W 061°51'0 0.0
2018-Feb-13 19:58N 17°07' W 061°51'0 0.0
2018-Feb-13 19:28N 17°07' W 061°51'0 0.0
2018-Feb-13 18:58N 17°07' W 061°51'0 0.0
2018-Feb-13 18:28N 17°07' W 061°51'0 0.0
2018-Feb-13 17:58N 17°07' W 061°51'0 0.0
2018-Feb-13 17:28N 17°07' W 061°51'0 0.0
2018-Feb-13 16:58N 17°07' W 061°51'0 0.0
2018-Feb-13 16:28N 17°07' W 061°51'0 0.0
2018-Feb-13 15:58N 17°07' W 061°51'0 0.0
2018-Feb-13 15:28N 17°07' W 061°51'0 0.0
2018-Feb-13 14:58N 17°07' W 061°51'0 0.0
2018-Feb-13 14:28N 17°07' W 061°51'0 0.0
2018-Feb-13 13:58N 17°07' W 061°51'0 0.0
2018-Feb-13 13:28N 17°07' W 061°51'0 0.0
2018-Feb-13 12:58N 17°07' W 061°51'0 0.5
2018-Feb-13 12:30N 17°07' W 061°51'4 8.1
2018-Feb-13 12:00N 17°09' W 061°55'612.3
2018-Feb-13 11:30N 17°06' W 062°00'917.5
2018-Feb-13 11:00N 16°57' W 062°02'918.3
2018-Feb-13 10:30N 16°48' W 062°03'918.0
2018-Feb-13 10:00N 16°39' W 062°03'917.8
2018-Feb-13 09:30N 16°30' W 062°04'917.5
2018-Feb-13 09:00N 16°21' W 062°05'  

Dump ship's entire track history